Time;durP1;ratioP1;P1;durP2;ratioP2;P2;SDS_P1;SDS_P2;PMS_P1;PMS_P2;Temp;Humidity;BMP_temperature;BMP_pressure;BME280_temperature;BME280_humidity;BME280_pressure;Samples;Min_cycle;Max_cycle;Signal;HPM_P1;HPM_P2
2023/03/09 00:00:40;;;;;;;8.48;6.90;;;;;;;-3.05;100.00;99521.47;5040305;28;20191;-47
2023/03/09 00:03:15;;;;;;;9.00;6.63;;;;;;;-3.06;100.00;99531.06;5047907;28;20295;-48
2023/03/09 00:05:50;;;;;;;9.52;7.53;;;;;;;-3.09;100.00;99536.31;5039436;28;20187;-46
2023/03/09 00:08:16;;;;;;;8.50;7.07;;;;;;;-3.12;100.00;99528.47;5039443;28;20178;-47
2023/03/09 00:10:41;;;;;;;14.15;7.60;;;;;;;-3.08;100.00;99522.34;5038880;28;20220;-48
2023/03/09 00:13:07;;;;;;;8.10;6.97;;;;;;;-2.96;100.00;99521.41;5039066;28;20207;-47
2023/03/09 00:15:32;;;;;;;10.23;7.80;;;;;;;-2.88;100.00;99519.63;5045037;28;20241;-49
2023/03/09 00:17:58;;;;;;;10.57;7.88;;;;;;;-2.89;100.00;99523.09;5037808;28;20661;-47
2023/03/09 00:20:24;;;;;;;10.52;7.63;;;;;;;-2.88;100.00;99532.72;5041790;28;20257;-47
2023/03/09 00:22:52;;;;;;;8.82;7.60;;;;;;;-2.84;100.00;99533.56;5037967;28;20207;-46
2023/03/09 00:25:19;;;;;;;8.00;6.68;;;;;;;-2.83;100.00;99536.19;5036695;28;20222;-48
2023/03/09 00:27:50;;;;;;;9.00;7.30;;;;;;;-2.87;100.00;99534.47;5043272;28;20763;-47
2023/03/09 00:30:16;;;;;;;9.73;7.95;;;;;;;-2.88;100.00;99542.34;5036681;28;20350;-47
2023/03/09 00:32:42;;;;;;;9.45;7.15;;;;;;;-2.88;100.00;99535.34;5036002;28;20214;-46
2023/03/09 00:35:08;;;;;;;8.70;6.95;;;;;;;-2.85;100.00;99540.56;5036847;28;20180;-47
2023/03/09 00:37:37;;;;;;;9.75;7.53;;;;;;;-2.86;100.00;99546.69;5039250;28;20249;-48
2023/03/09 00:40:05;;;;;;;8.82;7.53;;;;;;;-2.96;100.00;99545.84;5035890;28;20213;-46
2023/03/09 00:42:32;;;;;;;9.23;7.10;;;;;;;-2.94;100.00;99538.00;5034282;28;20672;-48
2023/03/09 00:45:00;;;;;;;9.60;8.30;;;;;;;-3.07;100.00;99539.78;5038230;28;20178;-49
2023/03/09 00:47:27;;;;;;;9.95;7.75;;;;;;;-3.16;100.00;99539.84;5032623;28;20591;-47
2023/03/09 00:49:52;;;;;;;8.63;6.93;;;;;;;-3.20;100.00;99546.81;5043857;28;20203;-47
2023/03/09 00:52:18;;;;;;;10.07;7.90;;;;;;;-3.20;100.00;99532.84;5040218;28;20196;-47
2023/03/09 00:54:43;;;;;;;12.07;8.32;;;;;;;-3.20;100.00;99533.72;5041699;28;20188;-47
2023/03/09 00:57:09;;;;;;;9.73;7.65;;;;;;;-3.10;100.00;99537.19;5040408;28;20187;-46
2023/03/09 00:59:35;;;;;;;11.23;8.68;;;;;;;-3.18;100.00;99537.22;5043244;28;20224;-49
2023/03/09 01:02:01;;;;;;;9.68;7.80;;;;;;;-3.13;100.00;99531.94;5038609;28;20192;-46
2023/03/09 01:04:27;;;;;;;11.82;8.35;;;;;;;-3.12;100.00;99531.09;5034919;28;20187;-46
2023/03/09 01:06:55;;;;;;;10.25;7.93;;;;;;;-3.04;100.00;99531.94;5044675;28;20192;-49
2023/03/09 01:09:21;;;;;;;12.38;8.93;;;;;;;-3.22;100.00;99538.09;5034265;28;20203;-46
2023/03/09 01:11:46;;;;;;;10.75;8.48;;;;;;;-3.33;100.00;99539.88;5041519;28;20188;-48
2023/03/09 01:14:12;;;;;;;11.75;8.80;;;;;;;-3.29;100.00;99530.28;5039885;28;20179;-49
2023/03/09 01:16:38;;;;;;;11.63;9.18;;;;;;;-3.25;100.00;99527.63;5038145;28;20933;-46
2023/03/09 01:19:03;;;;;;;13.07;8.52;;;;;;;-3.16;100.00;99529.34;5041151;28;20187;-45
2023/03/09 01:21:29;;;;;;;12.95;9.32;;;;;;;-3.12;100.00;99536.31;5040699;28;20217;-48
2023/03/09 01:23:54;;;;;;;11.23;8.10;;;;;;;-3.10;100.00;99524.09;5042629;28;20704;-48
2023/03/09 01:26:20;;;;;;;13.70;9.07;;;;;;;-3.12;100.00;99521.47;5036374;28;20266;-48
2023/03/09 01:28:46;;;;;;;12.50;8.48;;;;;;;-3.03;100.00;99524.94;5041122;28;20176;-47
2023/03/09 01:31:14;;;;;;;12.25;9.52;;;;;;;-3.06;100.00;99517.97;5042663;28;20373;-48
2023/03/09 01:33:41;;;;;;;12.38;8.68;;;;;;;-3.12;100.00;99518.00;5030637;28;20196;-47
2023/03/09 01:36:11;;;;;;;12.23;8.90;;;;;;;-3.13;100.00;99511.00;5035746;28;20203;-47
2023/03/09 01:38:36;;;;;;;12.95;9.25;;;;;;;-3.06;100.00;99515.34;5038758;28;20191;-48
2023/03/09 01:41:02;;;;;;;12.13;8.70;;;;;;;-3.06;100.00;99515.34;5045484;28;20658;-46
2023/03/09 01:43:39;;;;;;;13.15;9.40;;;;;;;-3.05;100.00;99514.47;5025262;28;20690;-47
2023/03/09 01:46:20;;;;;;;12.25;8.40;;;;;;;-3.26;100.00;99509.28;5036529;28;20259;-45
2023/03/09 01:49:01;;;;;;;11.65;8.75;;;;;;;-3.16;100.00;99508.41;5047654;28;20321;-45
2023/03/09 01:51:33;;;;;;;12.60;8.52;;;;;;;-3.25;100.00;99519.78;5039184;28;20253;-48
2023/03/09 01:54:00;;;;;;;11.27;8.57;;;;;;;-3.26;100.00;99509.28;5046823;28;20605;-43
2023/03/09 01:56:28;;;;;;;11.43;8.10;;;;;;;-3.26;100.00;99520.63;5045507;28;20206;-47
2023/03/09 01:58:55;;;;;;;13.35;9.20;;;;;;;-3.31;100.00;99515.41;5037578;28;20175;-44
2023/03/09 02:01:22;;;;;;;14.43;8.60;;;;;;;-3.29;100.00;99518.03;5045177;28;20183;-41
2023/03/09 02:03:51;;;;;;;10.07;7.93;;;;;;;-3.37;100.00;99512.84;5042296;28;20256;-47
2023/03/09 02:06:20;;;;;;;12.23;8.27;;;;;;;-3.45;100.00;99517.22;5039378;28;20535;-46
2023/03/09 02:09:20;;;;;;;10.80;7.93;;;;;;;-3.40;100.00;99520.69;5042248;28;20545;-46
2023/03/09 02:11:46;;;;;;;13.80;8.60;;;;;;;-3.33;100.00;99518.94;5039815;28;20188;-46
2023/03/09 02:14:13;;;;;;;11.27;8.68;;;;;;;-3.32;100.00;99515.44;5049816;28;20254;-41
2023/03/09 02:16:39;;;;;;;12.57;8.10;;;;;;;-3.38;100.00;99523.31;5049965;28;20163;-48
2023/03/09 02:19:15;;;;;;;11.07;8.68;;;;;;;-3.53;100.00;99524.22;5051074;28;20244;-43
2023/03/09 02:21:50;;;;;;;12.98;8.77;;;;;;;-3.47;100.00;99518.13;5049729;28;20178;-45
2023/03/09 02:24:56;;;;;;;12.88;8.82;;;;;;;-3.46;100.00;99528.56;5049730;28;20241;-44
2023/03/09 02:27:24;;;;;;;14.07;8.63;;;;;;;-3.44;100.00;99528.56;5049434;28;20198;-47
2023/03/09 02:29:51;;;;;;;11.52;8.18;;;;;;;-3.43;100.00;99517.19;5049696;28;20245;-41
2023/03/09 02:32:18;;;;;;;10.85;8.48;;;;;;;-3.44;100.00;99518.94;5049580;28;20219;-41
2023/03/09 02:34:43;;;;;;;10.43;7.97;;;;;;;-3.37;100.00;99522.44;5050526;28;20402;-41
2023/03/09 02:37:25;;;;;;;10.80;8.07;;;;;;;-3.42;100.00;99521.56;5049462;28;20167;-43
2023/03/09 02:39:55;;;;;;;9.40;7.63;;;;;;;-3.38;100.00;99516.31;5049032;28;20606;-41
2023/03/09 02:42:21;;;;;;;10.40;7.30;;;;;;;-3.33;100.00;99516.31;5049373;28;20198;-48
2023/03/09 02:44:48;;;;;;;14.68;8.90;;;;;;;-3.37;100.00;99520.69;5050638;28;20237;-42
2023/03/09 02:47:18;;;;;;;11.05;8.57;;;;;;;-3.40;100.00;99528.53;5050285;28;20622;-42
2023/03/09 02:49:43;;;;;;;12.32;8.38;;;;;;;-3.37;100.00;99530.28;5050606;28;20179;-42
2023/03/09 02:52:10;;;;;;;13.00;8.82;;;;;;;-3.37;100.00;99527.66;5048125;28;20278;-43
2023/03/09 02:54:36;;;;;;;10.88;8.25;;;;;;;-3.33;100.00;99527.66;5050249;28;20222;-43
2023/03/09 02:57:02;;;;;;;11.45;8.32;;;;;;;-3.38;100.00;99529.41;5050467;28;20172;-45
2023/03/09 02:59:27;;;;;;;11.68;8.30;;;;;;;-3.39;100.00;99532.94;5031801;28;20543;-45
2023/03/09 03:01:53;;;;;;;12.50;8.27;;;;;;;-3.37;100.00;99520.69;5049422;28;20396;-45
2023/03/09 03:04:18;;;;;;;13.75;9.10;;;;;;;-3.42;100.00;99529.44;5049685;28;20172;-42
2023/03/09 03:06:44;;;;;;;12.32;9.07;;;;;;;-3.47;100.00;99520.72;5052592;28;20178;-43
2023/03/09 03:09:10;;;;;;;11.98;8.88;;;;;;;-3.42;100.00;99522.44;5051263;28;20175;-43
2023/03/09 03:11:36;;;;;;;12.48;8.30;;;;;;;-3.35;100.00;99536.38;5050805;28;20163;-44
2023/03/09 03:14:01;;;;;;;10.98;8.30;;;;;;;-3.32;100.00;99534.66;5049138;28;20266;-45
2023/03/09 03:16:27;;;;;;;12.95;9.30;;;;;;;-3.28;100.00;99539.84;5050442;28;20180;-45
2023/03/09 03:18:53;;;;;;;12.27;8.52;;;;;;;-3.25;100.00;99532.00;5049189;28;20178;-43
2023/03/09 03:21:20;;;;;;;15.32;9.30;;;;;;;-3.35;100.00;99531.16;5065733;28;20233;-48
2023/03/09 03:23:45;;;;;;;11.15;8.85;;;;;;;-3.35;100.00;99532.00;5065659;28;20598;-44
2023/03/09 03:26:11;;;;;;;13.25;9.05;;;;;;;-3.27;100.00;99537.25;5048783;28;20249;-44
2023/03/09 03:28:42;;;;;;;12.98;8.40;;;;;;;-3.21;100.00;99532.00;5049036;28;20164;-45
2023/03/09 03:31:16;;;;;;;13.63;8.50;;;;;;;-3.22;100.00;99534.59;5065375;28;20689;-48
2023/03/09 03:33:41;;;;;;;12.43;9.10;;;;;;;-3.27;100.00;99547.72;5065598;28;20286;-43
2023/03/09 03:36:07;;;;;;;11.38;8.40;;;;;;;-3.27;100.00;99539.88;5048748;28;20203;-46
2023/03/09 03:38:34;;;;;;;12.15;9.02;;;;;;;-3.19;100.00;99552.91;5048539;28;20693;-44
2023/03/09 03:41:00;;;;;;;13.23;9.05;;;;;;;-3.19;100.00;99550.31;5048900;28;20207;-46
2023/03/09 03:43:28;;;;;;;11.07;8.02;;;;;;;-3.23;100.00;99557.31;5048639;28;20192;-42
2023/03/09 03:45:54;;;;;;;12.20;8.02;;;;;;;-3.17;100.00;99548.56;5065229;28;20184;-43
2023/03/09 03:48:21;;;;;;;12.57;8.85;;;;;;;-3.21;100.00;99547.72;5049978;28;20262;-45
2023/03/09 03:50:47;;;;;;;12.40;8.82;;;;;;;-3.27;100.00;99550.34;5039545;28;20275;-46
2023/03/09 03:53:13;;;;;;;11.43;8.05;;;;;;;-3.23;100.00;99556.44;5036869;28;20567;-45
2023/03/09 03:55:38;;;;;;;10.15;8.00;;;;;;;-3.22;100.00;99553.81;5046010;28;20279;-45
2023/03/09 03:58:04;;;;;;;14.13;9.32;;;;;;;-3.21;100.00;99558.19;5032925;28;20638;-47
2023/03/09 04:00:31;;;;;;;12.98;8.50;;;;;;;-3.15;100.00;99562.50;5046094;28;20699;-45
2023/03/09 04:03:00;;;;;;;11.48;8.00;;;;;;;-3.09;100.00;99564.25;5035765;28;20246;-46
2023/03/09 04:05:37;;;;;;;13.18;8.27;;;;;;;-3.08;100.00;99572.13;5024460;28;20191;-44
2023/03/09 04:08:03;;;;;;;12.85;8.30;;;;;;;-3.08;100.00;99569.50;5049240;28;20184;-46
2023/03/09 04:10:29;;;;;;;11.90;8.60;;;;;;;-3.05;100.00;99579.97;5045634;28;20238;-45
2023/03/09 04:12:57;;;;;;;11.60;7.63;;;;;;;-3.02;100.00;99571.22;5046470;28;20242;-46
2023/03/09 04:15:22;;;;;;;10.15;7.45;;;;;;;-3.06;100.00;99575.59;5049114;28;20596;-45
2023/03/09 04:17:49;;;;;;;10.52;8.32;;;;;;;-3.06;100.00;99573.00;5029747;28;20269;-46
2023/03/09 04:20:17;;;;;;;10.35;7.57;;;;;;;-3.06;100.00;99579.94;5040522;28;20168;-46
2023/03/09 04:22:44;;;;;;;9.95;7.53;;;;;;;-3.04;100.00;99576.47;5048370;28;20306;-46
2023/03/09 04:25:12;;;;;;;9.00;6.68;;;;;;;-3.05;100.00;99574.72;5042082;28;20191;-46
2023/03/09 04:27:38;;;;;;;12.27;7.70;;;;;;;-3.06;100.00;99573.00;5042112;28;20195;-46
2023/03/09 04:30:13;;;;;;;11.90;8.32;;;;;;;-3.07;100.00;99575.59;5042435;28;20676;-46
2023/03/09 04:32:39;;;;;;;11.20;7.18;;;;;;;-3.07;100.00;99580.84;5042932;28;20223;-46
2023/03/09 04:35:07;;;;;;;9.90;7.30;;;;;;;-3.05;100.00;99581.72;5040888;28;20207;-46
2023/03/09 04:37:34;;;;;;;9.88;6.80;;;;;;;-3.05;100.00;99582.56;5040001;28;20640;-47
2023/03/09 04:40:01;;;;;;;11.85;7.75;;;;;;;-3.05;100.00;99594.81;5039173;28;20227;-47
2023/03/09 04:42:27;;;;;;;9.13;7.75;;;;;;;-3.06;100.00;99591.34;5047586;28;20261;-46
2023/03/09 04:44:53;;;;;;;11.07;7.88;;;;;;;-3.07;100.00;99594.81;5039284;28;20187;-47
2023/03/09 04:47:19;;;;;;;13.00;7.45;;;;;;;-3.11;100.00;99593.94;5042873;28;20167;-46
2023/03/09 04:49:45;;;;;;;9.98;6.93;;;;;;;-3.14;100.00;99593.97;5036481;28;20208;-46
2023/03/09 04:52:11;;;;;;;11.57;7.80;;;;;;;-3.29;100.00;99585.28;5042270;28;20211;-46
2023/03/09 04:54:39;;;;;;;11.50;7.72;;;;;;;-3.36;100.00;99592.28;5040384;28;20180;-46
2023/03/09 04:57:04;;;;;;;10.15;7.28;;;;;;;-3.36;100.00;99595.75;5044633;28;20171;-45
2023/03/09 04:59:31;;;;;;;11.25;7.60;;;;;;;-3.29;100.00;99601.84;5042024;28;20183;-45
2023/03/09 05:01:57;;;;;;;11.63;7.00;;;;;;;-3.29;100.00;99585.28;5019505;28;20192;-48
2023/03/09 05:04:29;;;;;;;11.00;7.82;;;;;;;-3.28;100.00;99595.75;5036987;28;20176;-47
2023/03/09 05:06:56;;;;;;;8.75;6.75;;;;;;;-3.40;100.00;99588.78;5045887;28;20682;-48
2023/03/09 05:09:24;;;;;;;12.77;8.40;;;;;;;-3.41;100.00;99596.63;5037359;28;20202;-49
2023/03/09 05:11:51;;;;;;;10.63;7.20;;;;;;;-3.39;100.00;99594.88;5047264;28;20187;-48
2023/03/09 05:14:20;;;;;;;10.77;7.47;;;;;;;-3.38;100.00;99600.13;5040634;28;20249;-48
2023/03/09 05:16:48;;;;;;;13.10;8.00;;;;;;;-3.40;100.00;99598.38;5048064;28;20577;-47
2023/03/09 05:19:14;;;;;;;10.23;7.20;;;;;;;-3.40;100.00;99604.50;5039362;28;20655;-47
2023/03/09 05:21:40;;;;;;;10.88;7.65;;;;;;;-3.43;100.00;99599.25;5044532;28;20822;-48
2023/03/09 05:24:10;;;;;;;12.60;8.05;;;;;;;-3.38;100.00;99607.13;5041334;28;20246;-46
2023/03/09 05:26:36;;;;;;;13.25;7.80;;;;;;;-3.36;100.00;99601.00;5046455;28;20188;-46
2023/03/09 05:29:03;;;;;;;13.48;8.23;;;;;;;-3.41;100.00;99602.75;5043002;28;20186;-47
2023/03/09 05:31:30;;;;;;;11.13;7.30;;;;;;;-3.41;100.00;99599.25;5046640;28;20215;-48
2023/03/09 05:33:56;;;;;;;10.25;7.45;;;;;;;-3.42;100.00;99605.38;5026341;28;20202;-48
2023/03/09 05:36:25;;;;;;;10.07;7.32;;;;;;;-3.43;100.00;99601.88;5035673;28;20183;-48
2023/03/09 05:38:53;;;;;;;10.40;7.47;;;;;;;-3.44;100.00;99605.38;5040094;28;20190;-47
2023/03/09 05:41:20;;;;;;;11.95;8.10;;;;;;;-3.46;100.00;99607.09;5040997;28;20337;-48
2023/03/09 05:43:51;;;;;;;10.43;6.75;;;;;;;-3.45;100.00;99621.97;5027083;28;20302;-48
2023/03/09 05:46:16;;;;;;;13.68;7.88;;;;;;;-3.45;100.00;99616.72;5045133;28;20286;-47
2023/03/09 05:48:45;;;;;;;10.13;7.45;;;;;;;-3.47;100.00;99610.63;5035910;28;20584;-48
2023/03/09 05:51:11;;;;;;;10.02;7.57;;;;;;;-3.48;100.00;99615.84;5040012;28;20203;-48
2023/03/09 05:53:38;;;;;;;9.93;6.95;;;;;;;-3.47;100.00;99633.31;5040308;28;20200;-48
2023/03/09 05:56:05;;;;;;;11.68;8.15;;;;;;;-3.52;100.00;99638.53;5038565;28;20319;-47
2023/03/09 05:58:32;;;;;;;12.50;7.15;;;;;;;-3.51;100.00;99642.91;5039557;28;20183;-46
2023/03/09 06:00:58;;;;;;;11.35;7.35;;;;;;;-3.53;100.00;99653.38;5037297;28;20183;-48
2023/03/09 06:03:25;;;;;;;8.45;6.25;;;;;;;-3.49;100.00;99646.41;5035242;28;20231;-48
2023/03/09 06:06:01;;;;;;;8.65;6.68;;;;;;;-3.50;100.00;99649.88;5037939;28;20184;-48
2023/03/09 06:08:27;;;;;;;8.95;6.22;;;;;;;-3.45;100.00;99658.63;5037255;28;20208;-47
2023/03/09 06:10:57;;;;;;;11.63;6.90;;;;;;;-3.52;100.00;99657.75;5038375;28;20201;-47
2023/03/09 06:13:24;;;;;;;8.43;6.38;;;;;;;-3.48;100.00;99665.59;5039752;28;20196;-48
2023/03/09 06:15:50;;;;;;;11.32;6.70;;;;;;;-3.44;100.00;99668.19;5042434;28;20179;-49
2023/03/09 06:18:17;;;;;;;10.00;7.38;;;;;;;-3.57;100.00;99663.84;5038414;28;20542;-47
2023/03/09 06:20:45;;;;;;;10.52;6.90;;;;;;;-3.57;100.00;99658.59;5047166;28;20168;-48
2023/03/09 06:23:10;;;;;;;11.43;7.45;;;;;;;-3.60;100.00;99659.47;5040332;28;20567;-47
2023/03/09 06:25:37;;;;;;;9.73;7.13;;;;;;;-3.54;100.00;99664.72;5038067;28;20198;-48
2023/03/09 06:28:03;;;;;;;13.07;7.57;;;;;;;-3.43;100.00;99674.31;5027750;28;20263;-49
2023/03/09 06:30:33;;;;;;;12.32;7.85;;;;;;;-3.31;100.00;99677.78;5024447;28;20613;-49
2023/03/09 06:32:59;;;;;;;10.90;7.43;;;;;;;-3.19;100.00;99671.69;5049054;28;20191;-47
2023/03/09 06:35:26;;;;;;;12.98;8.32;;;;;;;-3.11;100.00;99682.16;5034057;28;20180;-49
2023/03/09 06:37:52;;;;;;;12.07;7.70;;;;;;;-3.03;100.00;99680.41;5043082;28;20170;-48
2023/03/09 06:40:18;;;;;;;10.07;7.43;;;;;;;-3.06;100.00;99690.88;5035189;28;20179;-48
2023/03/09 06:42:45;;;;;;;11.00;7.20;;;;;;;-3.01;100.00;99685.63;5032336;28;20223;-49
2023/03/09 06:45:12;;;;;;;9.57;6.75;;;;;;;-2.93;100.00;99689.09;5043946;28;20183;-47
2023/03/09 06:47:38;;;;;;;10.90;7.32;;;;;;;-2.89;100.00;99698.69;5038920;28;20310;-48
2023/03/09 06:50:07;;;;;;;9.73;6.68;;;;;;;-2.83;100.00;99689.97;5039559;28;20192;-49
2023/03/09 06:52:35;;;;;;;11.52;7.10;;;;;;;-2.87;100.00;99694.31;5038215;28;20328;-48
2023/03/09 06:55:02;;;;;;;10.00;6.95;;;;;;;-2.83;100.00;99697.81;5043392;28;20180;-49
2023/03/09 06:57:28;;;;;;;13.48;7.47;;;;;;;-2.80;100.00;99692.56;5041015;28;20183;-47
2023/03/09 06:59:54;;;;;;;12.80;7.60;;;;;;;-2.69;100.00;99706.50;5030170;28;20190;-46
2023/03/09 07:02:19;;;;;;;10.25;6.88;;;;;;;-2.63;100.00;99709.13;5036284;28;20204;-48
2023/03/09 07:04:46;;;;;;;11.68;7.03;;;;;;;-2.61;100.00;99696.88;5036184;28;20664;-47
2023/03/09 07:07:12;;;;;;;11.95;7.28;;;;;;;-2.50;100.00;99709.97;5045127;28;20195;-47
2023/03/09 07:09:38;;;;;;;11.65;7.70;;;;;;;-2.49;100.00;99711.72;5039645;28;20212;-48
2023/03/09 07:12:04;;;;;;;10.18;6.68;;;;;;;-2.33;100.00;99723.03;5039101;28;20699;-50
2023/03/09 07:14:30;;;;;;;9.55;6.68;;;;;;;-2.28;100.00;99722.09;5045931;28;20270;-46
2023/03/09 07:16:56;;;;;;;10.77;7.13;;;;;;;-2.19;100.00;99734.31;5042278;28;20682;-47
2023/03/09 07:19:22;;;;;;;12.27;7.22;;;;;;;-2.04;100.00;99722.03;5039077;28;20183;-46
2023/03/09 07:21:49;;;;;;;9.38;6.90;;;;;;;-1.95;100.00;99730.72;5037881;28;20180;-47
2023/03/09 07:24:15;;;;;;;10.70;6.60;;;;;;;-1.88;100.00;99735.06;5040893;28;20652;-47
2023/03/09 07:26:40;;;;;;;8.95;6.85;;;;;;;-1.83;100.00;99737.66;5044128;28;20246;-44
2023/03/09 07:29:06;;;;;;;11.88;7.30;;;;;;;-1.72;100.00;99743.72;5039414;28;20282;-46
2023/03/09 07:31:32;;;;;;;8.82;7.28;;;;;;;-1.61;100.00;99741.03;5040764;28;20281;-46
2023/03/09 07:33:58;;;;;;;10.90;7.85;;;;;;;-1.51;100.00;99749.72;5042101;28;20215;-46
2023/03/09 07:36:24;;;;;;;11.30;7.60;;;;;;;-1.40;100.00;99755.78;5040528;28;20184;-47
2023/03/09 07:38:50;;;;;;;13.00;7.85;;;;;;;-1.28;100.00;99754.81;5039460;28;20653;-44
2023/03/09 07:41:17;;;;;;;11.57;7.63;;;;;;;-1.21;100.00;99761.75;5040148;28;20183;-48
2023/03/09 07:43:46;;;;;;;15.55;9.02;;;;;;;-1.14;100.00;99763.44;5037517;28;20829;-47
2023/03/09 07:46:20;;;;;;;22.85;12.77;;;;;;;-1.03;100.00;99758.09;5050128;28;20182;-47
2023/03/09 07:48:46;;;;;;;15.55;9.25;;;;;;;-0.90;100.00;99775.50;5043433;28;20191;-46
2023/03/09 07:51:12;;;;;;;12.02;7.95;;;;;;;-0.79;100.00;99769.31;5041947;28;20206;-47
2023/03/09 07:53:40;;;;;;;12.40;7.80;;;;;;;-0.66;100.00;99778.81;5038200;28;20253;-48
2023/03/09 07:56:07;;;;;;;15.88;9.77;;;;;;;-0.62;100.00;99781.41;5041815;28;20275;-48
2023/03/09 07:58:35;;;;;;;10.82;7.03;;;;;;;-0.61;100.00;99782.28;5042021;28;20180;-47
2023/03/09 08:01:02;;;;;;;14.00;9.60;;;;;;;-0.54;100.00;99770.81;5039101;28;20199;-45
2023/03/09 08:03:27;;;;;;;16.15;8.32;;;;;;;-0.39;100.00;99782.94;5042421;28;20580;-47
2023/03/09 08:05:55;;;;;;;14.70;9.40;;;;;;;-0.33;100.00;99774.09;5038812;28;20172;-48
2023/03/09 08:08:26;;;;;;;40.72;19.00;;;;;;;-0.27;100.00;99781.94;5040617;28;20647;-47
2023/03/09 08:10:52;;;;;;;27.98;13.82;;;;;;;-0.19;100.00;99780.09;5043476;28;20286;-47
2023/03/09 08:13:19;;;;;;;11.07;7.90;;;;;;;-0.13;100.00;99782.66;5036596;28;20202;-47
2023/03/09 08:15:45;;;;;;;12.40;7.63;;;;;;;-0.10;100.00;99784.38;5048161;28;20187;-46
2023/03/09 08:18:12;;;;;;;17.85;10.82;;;;;;;0.02;100.00;99785.97;5043724;28;20202;-47
2023/03/09 08:20:38;;;;;;;14.57;7.70;;;;;;;0.04;100.00;99786.84;5048010;28;20171;-48
2023/03/09 08:23:03;;;;;;;10.45;7.28;;;;;;;0.12;100.00;99785.00;5042241;28;20222;-47
2023/03/09 08:25:30;;;;;;;10.48;7.20;;;;;;;0.10;100.00;99784.13;5042134;28;20184;-43
2023/03/09 08:27:56;;;;;;;18.00;10.25;;;;;;;0.21;100.00;99776.97;5039837;28;20168;-42
2023/03/09 08:30:22;;;;;;;10.50;7.57;;;;;;;0.21;100.00;99787.50;5037099;28;20207;-46
2023/03/09 08:32:49;;;;;;;8.13;6.53;;;;;;;0.31;100.00;99789.13;5044732;28;20257;-49
2023/03/09 08:35:16;;;;;;;12.90;7.18;;;;;;;0.31;100.00;99783.88;5052181;28;20207;-43
2023/03/09 08:37:41;;;;;;;9.98;6.35;;;;;;;0.33;100.00;99786.50;5033309;28;20255;-42
2023/03/09 08:40:08;;;;;;;9.15;6.28;;;;;;;0.32;100.00;99787.38;5043556;28;20694;-47
2023/03/09 08:42:33;;;;;;;8.30;6.60;;;;;;;0.33;100.00;99790.00;5053243;28;20189;-48
2023/03/09 08:45:00;;;;;;;9.02;5.97;;;;;;;0.39;100.00;99782.00;5052158;28;20203;-45
2023/03/09 08:47:25;;;;;;;11.05;6.20;;;;;;;0.53;100.00;99792.34;5052889;28;20272;-43
2023/03/09 08:49:51;;;;;;;19.88;8.52;;;;;;;0.62;100.00;99793.97;5050789;28;20240;-47
2023/03/09 08:52:16;;;;;;;9.38;5.82;;;;;;;0.59;100.00;99791.38;5049461;28;20207;-46
2023/03/09 08:54:42;;;;;;;10.23;6.57;;;;;;;0.66;100.00;99800.09;5047269;28;20184;-44
2023/03/09 08:57:08;;;;;;;11.48;7.43;;;;;;;0.83;100.00;99795.41;5052453;28;20615;-44
2023/03/09 08:59:34;;;;;;;7.72;5.47;;;;;;;0.78;100.00;99790.22;5053323;28;20258;-43
2023/03/09 09:02:00;;;;;;;8.57;5.88;;;;;;;0.98;100.00;99786.38;5041241;28;20696;-44
2023/03/09 09:04:27;;;;;;;6.15;5.00;;;;;;;1.14;100.00;99793.19;5041815;28;20247;-43
2023/03/09 09:06:52;;;;;;;8.27;5.30;;;;;;;0.89;100.00;99781.28;5051960;28;20191;-44
2023/03/09 09:09:17;;;;;;;8.13;5.25;;;;;;;0.99;100.00;99783.75;5036349;28;20184;-43
2023/03/09 09:11:43;;;;;;;7.55;5.50;;;;;;;0.98;100.00;99782.00;5038187;28;20599;-48
2023/03/09 09:14:08;;;;;;;7.65;5.00;;;;;;;0.95;100.00;99771.50;5050666;28;20183;-43
2023/03/09 09:16:34;;;;;;;9.88;5.88;;;;;;;1.15;100.00;99773.81;5050115;28;20238;-46
2023/03/09 09:18:59;;;;;;;7.43;5.47;;;;;;;1.47;100.00;99767.09;5049870;28;20212;-47
2023/03/09 09:21:27;;;;;;;7.30;5.40;;;;;;;1.32;100.00;99770.88;5034969;28;20165;-41
2023/03/09 09:23:53;;;;;;;8.80;6.22;;;;;;;1.29;99.16;99765.66;5052449;28;20260;-43
2023/03/09 09:26:19;;;;;;;7.70;5.43;;;;;;;1.71;98.37;99772.84;5055974;28;20188;-42
2023/03/09 09:28:45;;;;;;;6.57;5.55;;;;;;;2.08;97.61;99774.72;5046618;28;20167;-44
2023/03/09 09:31:16;;;;;;;6.65;5.95;;;;;;;1.84;96.20;99769.91;5051630;28;20727;-43
2023/03/09 09:33:43;;;;;;;8.48;5.13;;;;;;;1.77;95.39;99770.94;5047231;28;20253;-44
2023/03/09 09:36:12;;;;;;;8.52;5.43;;;;;;;2.06;94.55;99766.84;5048802;28;20171;-44
2023/03/09 09:38:38;;;;;;;7.28;5.60;;;;;;;1.90;93.66;99774.19;5050402;28;20175;-43
2023/03/09 09:41:22;;;;;;;8.27;5.85;;;;;;;1.98;92.81;99769.63;5051856;28;20174;-41
2023/03/09 09:43:52;;;;;;;11.20;6.13;;;;;;;2.17;92.85;99777.19;5047036;28;20191;-45
2023/03/09 09:46:21;;;;;;;11.15;6.10;;;;;;;2.17;92.24;99772.78;5049312;28;20194;-46
2023/03/09 09:48:48;;;;;;;7.00;6.15;;;;;;;2.24;91.31;99774.38;5049880;28;20654;-43
2023/03/09 09:51:38;;;;;;;9.23;6.55;;;;;;;2.26;90.90;99779.63;5051133;28;20207;-45
2023/03/09 09:54:13;;;;;;;8.98;7.25;;;;;;;2.10;90.35;99776.44;5034762;28;20204;-44
2023/03/09 09:56:47;;;;;;;12.50;6.97;;;;;;;2.83;89.92;99766.00;5032076;28;20697;-44
2023/03/09 09:59:20;;;;;;;10.05;6.38;;;;;;;3.14;89.27;99761.75;5040280;28;20779;-45
2023/03/09 10:01:50;;;;;;;7.22;5.78;;;;;;;2.96;87.42;99765.72;5046150;28;20167;-46
2023/03/09 10:04:26;;;;;;;9.07;6.15;;;;;;;3.18;87.06;99764.28;5031694;28;20256;-43
2023/03/09 10:06:53;;;;;;;10.05;5.85;;;;;;;2.64;85.74;99751.47;5032854;28;20152;-46
2023/03/09 10:09:22;;;;;;;9.93;5.70;;;;;;;2.77;85.71;99771.44;5046503;28;20595;-44
2023/03/09 10:11:54;;;;;;;9.80;6.28;;;;;;;2.52;85.29;99759.69;5040112;28;20311;-46
2023/03/09 10:14:20;;;;;;;8.25;5.57;;;;;;;2.66;84.95;99765.53;5036031;28;20258;-42
2023/03/09 10:16:52;;;;;;;9.18;6.07;;;;;;;3.02;85.06;99762.94;5047822;28;20206;-44
2023/03/09 10:19:26;;;;;;;8.52;6.45;;;;;;;2.75;84.51;99767.94;5045372;28;20606;-46
2023/03/09 10:22:05;;;;;;;7.97;6.25;;;;;;;2.77;83.84;99758.19;5046509;28;20728;-46
2023/03/09 10:24:45;;;;;;;9.45;6.50;;;;;;;3.35;83.40;99761.19;5037365;28;20183;-45
2023/03/09 10:27:40;;;;;;;9.48;5.93;;;;;;;3.30;82.37;99753.38;5019837;28;20560;-44
2023/03/09 10:30:23;;;;;;;10.75;6.53;;;;;;;3.50;81.33;99762.59;5034875;28;20202;-44
2023/03/09 10:32:53;;;;;;;8.90;5.70;;;;;;;2.94;81.27;99751.66;5039901;28;20279;-46
2023/03/09 10:35:37;;;;;;;9.75;6.07;;;;;;;3.41;80.98;99754.84;5030882;28;20168;-47
2023/03/09 10:38:03;;;;;;;9.80;6.43;;;;;;;3.90;80.85;99756.19;5030893;28;20172;-48
2023/03/09 10:40:41;;;;;;;10.05;6.60;;;;;;;3.87;80.46;99748.31;5040660;28;20626;-45
2023/03/09 10:43:14;;;;;;;12.02;6.90;;;;;;;3.69;78.96;99753.19;5037777;28;20199;-44
2023/03/09 10:45:40;;;;;;;10.55;6.95;;;;;;;3.82;78.77;99739.63;5037437;28;20285;-43
2023/03/09 10:48:06;;;;;;;10.90;6.53;;;;;;;3.48;78.06;99735.28;5039616;28;20274;-44
2023/03/09 10:50:53;;;;;;;7.05;6.35;;;;;;;3.61;78.34;99747.28;5035183;28;20199;-44
2023/03/09 10:53:24;;;;;;;8.68;6.90;;;;;;;3.87;78.19;99743.91;5039201;28;20256;-45
2023/03/09 10:55:53;;;;;;;7.25;5.85;;;;;;;3.02;77.80;99737.34;5038968;28;20175;-43
2023/03/09 10:58:21;;;;;;;6.07;5.25;;;;;;;3.17;77.80;99753.72;5045060;28;20520;-42
2023/03/09 11:01:03;;;;;;;8.50;5.72;;;;;;;2.97;78.64;99747.13;5037722;28;20172;-45
2023/03/09 11:03:38;;;;;;;8.55;6.13;;;;;;;3.38;78.27;99765.53;5035726;28;20235;-42
2023/03/09 11:06:22;;;;;;;7.65;6.13;;;;;;;3.36;77.67;99760.28;5040562;28;20203;-43
2023/03/09 11:09:16;;;;;;;9.23;5.70;;;;;;;3.09;77.10;99748.63;5038149;28;20287;-44
2023/03/09 11:11:45;;;;;;;7.82;5.80;;;;;;;3.43;77.07;99753.94;5038572;28;20623;-44
2023/03/09 11:14:23;;;;;;;9.10;6.20;;;;;;;3.49;76.72;99753.75;5036288;28;20226;-43
2023/03/09 11:16:55;;;;;;;7.30;6.60;;;;;;;3.62;76.57;99759.59;5033262;28;20189;-43
2023/03/09 11:19:21;;;;;;;8.38;5.82;;;;;;;3.65;76.60;99753.34;5039930;28;20190;-42
2023/03/09 11:21:55;;;;;;;6.85;5.65;;;;;;;3.42;76.13;99749.53;5041146;28;20175;-42
2023/03/09 11:24:24;;;;;;;9.02;6.28;;;;;;;3.44;76.26;99753.00;5038986;28;20198;-43
2023/03/09 11:26:58;;;;;;;9.93;6.03;;;;;;;3.77;76.01;99758.31;5043985;28;20175;-44
2023/03/09 11:29:42;;;;;;;8.30;6.25;;;;;;;3.70;76.02;99760.25;5049673;28;20532;-43